SKS weather

Skrydstrup Air Base
Vojens, South Denmark, Denmark

Public forecast

Using degrees Celsius for public forecast. Weather courtesy of forecast.io.

METAR (pilot weather report)

Retrieved 2019/07/20 02:20 UTC (0 seconds ago):

EKSP 200220Z 11004KT CAVOK 14/13 Q1013

TAF (pilot weather forecast)

Retrieved 2019/07/20 03:31 UTC (0 seconds ago):

TAF EKSP 200228Z 2003/2103 14010KT 9999 FEW100 BECMG 2016/2018 20008KT -RA TEMPO 2018/2103 22010G20KT 4000 SHRA BKN008 BKN020CB